sensor_id;sensor_type;location;lat;lon;timestamp;P1;durP1;ratioP1;P2;durP2;ratioP2
10957;SDS011;5531;42.570;23.676;2022-08-19T00:00:27;5.18;;;4.60;;
10957;SDS011;5531;42.570;23.676;2022-08-19T00:02:56;5.53;;;4.68;;
10957;SDS011;5531;42.570;23.676;2022-08-19T00:05:25;5.28;;;4.57;;
10957;SDS011;5531;42.570;23.676;2022-08-19T00:07:57;5.30;;;4.80;;
10957;SDS011;5531;42.570;23.676;2022-08-19T00:10:26;4.82;;;4.43;;
10957;SDS011;5531;42.570;23.676;2022-08-19T00:12:55;4.88;;;4.40;;
10957;SDS011;5531;42.570;23.676;2022-08-19T00:15:25;5.30;;;4.68;;
10957;SDS011;5531;42.570;23.676;2022-08-19T00:17:54;5.00;;;4.50;;
10957;SDS011;5531;42.570;23.676;2022-08-19T00:20:23;4.78;;;4.38;;
10957;SDS011;5531;42.570;23.676;2022-08-19T00:22:52;6.32;;;4.78;;
10957;SDS011;5531;42.570;23.676;2022-08-19T00:25:24;4.68;;;4.28;;
10957;SDS011;5531;42.570;23.676;2022-08-19T00:27:53;5.38;;;4.88;;
10957;SDS011;5531;42.570;23.676;2022-08-19T00:30:22;4.90;;;4.50;;
10957;SDS011;5531;42.570;23.676;2022-08-19T00:32:53;5.93;;;4.80;;
10957;SDS011;5531;42.570;23.676;2022-08-19T00:35:22;5.07;;;4.57;;
10957;SDS011;5531;42.570;23.676;2022-08-19T00:37:52;5.10;;;4.70;;
10957;SDS011;5531;42.570;23.676;2022-08-19T00:40:24;7.30;;;5.10;;
10957;SDS011;5531;42.570;23.676;2022-08-19T00:42:56;6.75;;;4.90;;
10957;SDS011;5531;42.570;23.676;2022-08-19T00:45:26;5.18;;;4.63;;
10957;SDS011;5531;42.570;23.676;2022-08-19T00:48:01;6.97;;;5.05;;
10957;SDS011;5531;42.570;23.676;2022-08-19T00:50:31;5.20;;;4.70;;
10957;SDS011;5531;42.570;23.676;2022-08-19T00:53:02;5.28;;;4.78;;
10957;SDS011;5531;42.570;23.676;2022-08-19T00:55:34;5.63;;;5.13;;
10957;SDS011;5531;42.570;23.676;2022-08-19T00:58:07;5.28;;;4.60;;
10957;SDS011;5531;42.570;23.676;2022-08-19T01:00:38;4.97;;;4.57;;
10957;SDS011;5531;42.570;23.676;2022-08-19T01:03:09;5.70;;;5.20;;
10957;SDS011;5531;42.570;23.676;2022-08-19T01:05:41;5.13;;;4.70;;
10957;SDS011;5531;42.570;23.676;2022-08-19T01:08:11;5.40;;;4.90;;
10957;SDS011;5531;42.570;23.676;2022-08-19T01:10:47;5.68;;;5.15;;
10957;SDS011;5531;42.570;23.676;2022-08-19T01:13:19;5.13;;;4.63;;
10957;SDS011;5531;42.570;23.676;2022-08-19T01:15:52;5.20;;;4.70;;
10957;SDS011;5531;42.570;23.676;2022-08-19T01:18:24;6.43;;;4.93;;
10957;SDS011;5531;42.570;23.676;2022-08-19T01:20:56;6.45;;;5.07;;
10957;SDS011;5531;42.570;23.676;2022-08-19T01:23:33;5.78;;;5.25;;
10957;SDS011;5531;42.570;23.676;2022-08-19T01:26:12;6.30;;;4.88;;
10957;SDS011;5531;42.570;23.676;2022-08-19T01:28:44;5.63;;;5.13;;
10957;SDS011;5531;42.570;23.676;2022-08-19T01:31:16;5.97;;;5.45;;
10957;SDS011;5531;42.570;23.676;2022-08-19T01:33:47;5.88;;;5.38;;
10957;SDS011;5531;42.570;23.676;2022-08-19T01:36:24;5.78;;;5.28;;
10957;SDS011;5531;42.570;23.676;2022-08-19T01:38:58;6.05;;;5.45;;
10957;SDS011;5531;42.570;23.676;2022-08-19T01:41:27;6.43;;;5.57;;
10957;SDS011;5531;42.570;23.676;2022-08-19T01:43:56;6.28;;;5.43;;
10957;SDS011;5531;42.570;23.676;2022-08-19T01:46:26;5.38;;;4.97;;
10957;SDS011;5531;42.570;23.676;2022-08-19T01:48:55;5.75;;;5.25;;
10957;SDS011;5531;42.570;23.676;2022-08-19T01:51:25;6.80;;;5.60;;
10957;SDS011;5531;42.570;23.676;2022-08-19T01:53:58;21.70;;;6.00;;
10957;SDS011;5531;42.570;23.676;2022-08-19T01:56:27;11.95;;;5.43;;
10957;SDS011;5531;42.570;23.676;2022-08-19T01:58:57;8.20;;;5.38;;
10957;SDS011;5531;42.570;23.676;2022-08-19T02:01:29;5.70;;;5.20;;
10957;SDS011;5531;42.570;23.676;2022-08-19T02:03:59;5.55;;;4.97;;
10957;SDS011;5531;42.570;23.676;2022-08-19T02:06:28;5.82;;;5.22;;
10957;SDS011;5531;42.570;23.676;2022-08-19T02:09:00;5.60;;;5.10;;
10957;SDS011;5531;42.570;23.676;2022-08-19T02:11:31;5.93;;;5.30;;
10957;SDS011;5531;42.570;23.676;2022-08-19T02:14:02;5.32;;;4.85;;
10957;SDS011;5531;42.570;23.676;2022-08-19T02:16:33;5.40;;;4.90;;
10957;SDS011;5531;42.570;23.676;2022-08-19T02:19:04;5.60;;;5.20;;
10957;SDS011;5531;42.570;23.676;2022-08-19T02:21:33;5.43;;;5.00;;
10957;SDS011;5531;42.570;23.676;2022-08-19T02:24:05;5.47;;;4.82;;
10957;SDS011;5531;42.570;23.676;2022-08-19T02:26:34;6.20;;;5.20;;
10957;SDS011;5531;42.570;23.676;2022-08-19T02:29:03;6.20;;;4.75;;
10957;SDS011;5531;42.570;23.676;2022-08-19T02:31:33;5.53;;;4.88;;
10957;SDS011;5531;42.570;23.676;2022-08-19T02:34:02;5.38;;;4.88;;
10957;SDS011;5531;42.570;23.676;2022-08-19T02:36:31;5.15;;;4.68;;
10957;SDS011;5531;42.570;23.676;2022-08-19T02:39:00;5.47;;;4.97;;
10957;SDS011;5531;42.570;23.676;2022-08-19T02:41:31;5.30;;;4.85;;
10957;SDS011;5531;42.570;23.676;2022-08-19T02:44:02;6.80;;;5.20;;
10957;SDS011;5531;42.570;23.676;2022-08-19T02:46:32;5.20;;;4.80;;
10957;SDS011;5531;42.570;23.676;2022-08-19T02:49:03;5.50;;;5.00;;
10957;SDS011;5531;42.570;23.676;2022-08-19T02:51:34;5.57;;;5.10;;
10957;SDS011;5531;42.570;23.676;2022-08-19T02:54:07;5.60;;;5.00;;
10957;SDS011;5531;42.570;23.676;2022-08-19T02:56:40;5.43;;;4.93;;
10957;SDS011;5531;42.570;23.676;2022-08-19T02:59:10;5.35;;;4.88;;
10957;SDS011;5531;42.570;23.676;2022-08-19T03:01:40;5.32;;;4.82;;
10957;SDS011;5531;42.570;23.676;2022-08-19T03:04:10;5.20;;;4.80;;
10957;SDS011;5531;42.570;23.676;2022-08-19T03:06:42;5.25;;;4.85;;
10957;SDS011;5531;42.570;23.676;2022-08-19T03:09:13;5.72;;;5.22;;
10957;SDS011;5531;42.570;23.676;2022-08-19T03:11:45;5.90;;;5.20;;
10957;SDS011;5531;42.570;23.676;2022-08-19T03:14:15;5.80;;;5.30;;
10957;SDS011;5531;42.570;23.676;2022-08-19T03:16:45;6.22;;;5.20;;
10957;SDS011;5531;42.570;23.676;2022-08-19T03:19:17;5.93;;;5.25;;
10957;SDS011;5531;42.570;23.676;2022-08-19T03:21:47;5.35;;;4.85;;
10957;SDS011;5531;42.570;23.676;2022-08-19T03:24:17;5.50;;;5.00;;
10957;SDS011;5531;42.570;23.676;2022-08-19T03:26:50;8.88;;;5.30;;
10957;SDS011;5531;42.570;23.676;2022-08-19T03:29:23;5.88;;;5.00;;
10957;SDS011;5531;42.570;23.676;2022-08-19T03:31:53;5.80;;;5.30;;
10957;SDS011;5531;42.570;23.676;2022-08-19T03:34:22;5.53;;;5.03;;
10957;SDS011;5531;42.570;23.676;2022-08-19T03:36:53;7.28;;;5.10;;
10957;SDS011;5531;42.570;23.676;2022-08-19T03:39:23;5.93;;;5.32;;
10957;SDS011;5531;42.570;23.676;2022-08-19T03:41:55;5.78;;;5.15;;
10957;SDS011;5531;42.570;23.676;2022-08-19T03:44:27;5.68;;;5.13;;
10957;SDS011;5531;42.570;23.676;2022-08-19T03:46:58;5.55;;;5.13;;
10957;SDS011;5531;42.570;23.676;2022-08-19T03:49:28;5.88;;;5.28;;
10957;SDS011;5531;42.570;23.676;2022-08-19T03:52:00;5.78;;;5.28;;
10957;SDS011;5531;42.570;23.676;2022-08-19T03:54:32;5.43;;;4.93;;
10957;SDS011;5531;42.570;23.676;2022-08-19T03:57:06;5.90;;;5.30;;
10957;SDS011;5531;42.570;23.676;2022-08-19T03:59:37;5.90;;;5.30;;
10957;SDS011;5531;42.570;23.676;2022-08-19T04:02:09;6.03;;;5.43;;
10957;SDS011;5531;42.570;23.676;2022-08-19T04:04:40;5.72;;;5.22;;
10957;SDS011;5531;42.570;23.676;2022-08-19T04:07:12;6.13;;;5.53;;
10957;SDS011;5531;42.570;23.676;2022-08-19T04:09:46;6.00;;;5.50;;
10957;SDS011;5531;42.570;23.676;2022-08-19T04:12:19;6.72;;;5.43;;
10957;SDS011;5531;42.570;23.676;2022-08-19T04:14:49;6.07;;;5.57;;
10957;SDS011;5531;42.570;23.676;2022-08-19T04:17:18;6.20;;;5.70;;
10957;SDS011;5531;42.570;23.676;2022-08-19T04:19:47;5.65;;;5.13;;
10957;SDS011;5531;42.570;23.676;2022-08-19T04:22:16;5.97;;;5.35;;
10957;SDS011;5531;42.570;23.676;2022-08-19T04:24:45;5.72;;;5.13;;
10957;SDS011;5531;42.570;23.676;2022-08-19T04:27:14;5.63;;;5.10;;
10957;SDS011;5531;42.570;23.676;2022-08-19T04:29:46;6.13;;;5.53;;
10957;SDS011;5531;42.570;23.676;2022-08-19T04:32:15;5.80;;;5.30;;
10957;SDS011;5531;42.570;23.676;2022-08-19T04:34:44;5.70;;;5.20;;
10957;SDS011;5531;42.570;23.676;2022-08-19T04:37:13;5.72;;;5.22;;
10957;SDS011;5531;42.570;23.676;2022-08-19T04:39:42;5.80;;;5.20;;
10957;SDS011;5531;42.570;23.676;2022-08-19T04:42:24;5.55;;;5.05;;
10957;SDS011;5531;42.570;23.676;2022-08-19T04:45:08;6.97;;;5.40;;
10957;SDS011;5531;42.570;23.676;2022-08-19T04:47:40;5.63;;;5.10;;
10957;SDS011;5531;42.570;23.676;2022-08-19T04:50:11;5.47;;;4.97;;
10957;SDS011;5531;42.570;23.676;2022-08-19T04:52:40;5.43;;;4.90;;
10957;SDS011;5531;42.570;23.676;2022-08-19T04:55:10;5.60;;;5.10;;
10957;SDS011;5531;42.570;23.676;2022-08-19T04:57:39;5.30;;;4.82;;
10957;SDS011;5531;42.570;23.676;2022-08-19T05:00:12;5.45;;;4.93;;
10957;SDS011;5531;42.570;23.676;2022-08-19T05:02:41;5.35;;;4.70;;
10957;SDS011;5531;42.570;23.676;2022-08-19T05:05:10;5.70;;;5.20;;
10957;SDS011;5531;42.570;23.676;2022-08-19T05:07:39;5.75;;;5.18;;
10957;SDS011;5531;42.570;23.676;2022-08-19T05:10:09;4.95;;;4.55;;
10957;SDS011;5531;42.570;23.676;2022-08-19T05:12:38;6.22;;;5.40;;
10957;SDS011;5531;42.570;23.676;2022-08-19T05:15:08;5.30;;;4.80;;
10957;SDS011;5531;42.570;23.676;2022-08-19T05:17:40;5.15;;;4.75;;
10957;SDS011;5531;42.570;23.676;2022-08-19T05:20:30;5.18;;;4.78;;
10957;SDS011;5531;42.570;23.676;2022-08-19T05:23:11;5.20;;;4.53;;
10957;SDS011;5531;42.570;23.676;2022-08-19T05:25:42;5.18;;;4.68;;
10957;SDS011;5531;42.570;23.676;2022-08-19T05:28:11;5.28;;;4.78;;
10957;SDS011;5531;42.570;23.676;2022-08-19T05:30:43;5.03;;;4.63;;
10957;SDS011;5531;42.570;23.676;2022-08-19T05:33:13;5.07;;;4.60;;
10957;SDS011;5531;42.570;23.676;2022-08-19T05:35:42;5.32;;;4.82;;
10957;SDS011;5531;42.570;23.676;2022-08-19T05:38:13;5.45;;;5.03;;
10957;SDS011;5531;42.570;23.676;2022-08-19T05:40:42;5.30;;;4.80;;
10957;SDS011;5531;42.570;23.676;2022-08-19T05:43:14;5.35;;;4.85;;
10957;SDS011;5531;42.570;23.676;2022-08-19T05:45:46;5.13;;;4.68;;
10957;SDS011;5531;42.570;23.676;2022-08-19T05:48:16;4.50;;;4.10;;
10957;SDS011;5531;42.570;23.676;2022-08-19T05:50:46;5.07;;;4.57;;
10957;SDS011;5531;42.570;23.676;2022-08-19T05:53:15;5.95;;;4.50;;
10957;SDS011;5531;42.570;23.676;2022-08-19T05:55:44;6.30;;;4.57;;
10957;SDS011;5531;42.570;23.676;2022-08-19T05:58:13;5.10;;;4.60;;
10957;SDS011;5531;42.570;23.676;2022-08-19T06:00:43;5.15;;;4.75;;
10957;SDS011;5531;42.570;23.676;2022-08-19T06:03:15;5.25;;;4.75;;
10957;SDS011;5531;42.570;23.676;2022-08-19T06:05:44;5.13;;;4.57;;
10957;SDS011;5531;42.570;23.676;2022-08-19T06:08:13;5.22;;;4.75;;
10957;SDS011;5531;42.570;23.676;2022-08-19T06:10:43;5.22;;;4.72;;
10957;SDS011;5531;42.570;23.676;2022-08-19T06:13:12;6.25;;;4.90;;
10957;SDS011;5531;42.570;23.676;2022-08-19T06:15:42;5.00;;;4.50;;
10957;SDS011;5531;42.570;23.676;2022-08-19T06:18:12;5.50;;;4.97;;
10957;SDS011;5531;42.570;23.676;2022-08-19T06:20:44;5.82;;;4.95;;
10957;SDS011;5531;42.570;23.676;2022-08-19T06:23:14;5.10;;;4.57;;
10957;SDS011;5531;42.570;23.676;2022-08-19T06:25:44;6.30;;;4.20;;
10957;SDS011;5531;42.570;23.676;2022-08-19T06:28:13;6.05;;;4.40;;
10957;SDS011;5531;42.570;23.676;2022-08-19T06:30:42;5.00;;;4.50;;
10957;SDS011;5531;42.570;23.676;2022-08-19T06:33:11;5.43;;;4.60;;
10957;SDS011;5531;42.570;23.676;2022-08-19T06:35:43;4.93;;;4.43;;
10957;SDS011;5531;42.570;23.676;2022-08-19T06:38:12;6.22;;;4.50;;
10957;SDS011;5531;42.570;23.676;2022-08-19T06:40:41;5.03;;;4.45;;
10957;SDS011;5531;42.570;23.676;2022-08-19T06:43:10;4.65;;;4.25;;
10957;SDS011;5531;42.570;23.676;2022-08-19T06:45:41;5.38;;;4.35;;
10957;SDS011;5531;42.570;23.676;2022-08-19T06:48:10;5.88;;;4.30;;
10957;SDS011;5531;42.570;23.676;2022-08-19T06:50:39;4.75;;;4.35;;
10957;SDS011;5531;42.570;23.676;2022-08-19T06:53:12;5.82;;;4.03;;
10957;SDS011;5531;42.570;23.676;2022-08-19T06:55:42;4.40;;;4.00;;
10957;SDS011;5531;42.570;23.676;2022-08-19T06:58:12;7.13;;;4.40;;
10957;SDS011;5531;42.570;23.676;2022-08-19T07:00:41;6.30;;;4.00;;
10957;SDS011;5531;42.570;23.676;2022-08-19T07:03:10;4.13;;;3.72;;
10957;SDS011;5531;42.570;23.676;2022-08-19T07:05:40;6.68;;;4.28;;
10957;SDS011;5531;42.570;23.676;2022-08-19T07:08:12;4.45;;;4.00;;
10957;SDS011;5531;42.570;23.676;2022-08-19T07:10:42;4.28;;;3.88;;
10957;SDS011;5531;42.570;23.676;2022-08-19T07:13:13;6.38;;;4.18;;
10957;SDS011;5531;42.570;23.676;2022-08-19T07:15:42;5.03;;;4.15;;
10957;SDS011;5531;42.570;23.676;2022-08-19T07:18:12;4.70;;;4.30;;
10957;SDS011;5531;42.570;23.676;2022-08-19T07:20:44;5.57;;;3.97;;
10957;SDS011;5531;42.570;23.676;2022-08-19T07:23:13;5.78;;;3.90;;
10957;SDS011;5531;42.570;23.676;2022-08-19T07:25:42;5.13;;;4.28;;
10957;SDS011;5531;42.570;23.676;2022-08-19T07:28:11;6.28;;;4.13;;
10957;SDS011;5531;42.570;23.676;2022-08-19T07:30:40;5.95;;;4.35;;
10957;SDS011;5531;42.570;23.676;2022-08-19T07:33:10;4.50;;;3.88;;
10957;SDS011;5531;42.570;23.676;2022-08-19T07:35:39;5.53;;;4.25;;
10957;SDS011;5531;42.570;23.676;2022-08-19T07:38:11;4.95;;;4.25;;
10957;SDS011;5531;42.570;23.676;2022-08-19T07:40:41;4.40;;;4.00;;
10957;SDS011;5531;42.570;23.676;2022-08-19T07:43:12;4.30;;;3.55;;
10957;SDS011;5531;42.570;23.676;2022-08-19T07:45:41;4.97;;;4.28;;
10957;SDS011;5531;42.570;23.676;2022-08-19T07:48:10;5.03;;;4.53;;
10957;SDS011;5531;42.570;23.676;2022-08-19T07:50:40;5.18;;;4.10;;
10957;SDS011;5531;42.570;23.676;2022-08-19T07:53:12;5.28;;;4.20;;
10957;SDS011;5531;42.570;23.676;2022-08-19T07:55:41;4.38;;;3.97;;
10957;SDS011;5531;42.570;23.676;2022-08-19T07:58:12;5.20;;;4.20;;
10957;SDS011;5531;42.570;23.676;2022-08-19T08:00:52;4.47;;;3.95;;
10957;SDS011;5531;42.570;23.676;2022-08-19T08:03:22;6.75;;;4.13;;
10957;SDS011;5531;42.570;23.676;2022-08-19T08:06:12;4.30;;;3.90;;
10957;SDS011;5531;42.570;23.676;2022-08-19T08:08:56;4.68;;;3.63;;
10957;SDS011;5531;42.570;23.676;2022-08-19T08:11:39;4.93;;;3.97;;
10957;SDS011;5531;42.570;23.676;2022-08-19T08:14:10;6.43;;;3.85;;
10957;SDS011;5531;42.570;23.676;2022-08-19T08:16:39;5.38;;;4.43;;
10957;SDS011;5531;42.570;23.676;2022-08-19T08:19:11;4.10;;;3.80;;
10957;SDS011;5531;42.570;23.676;2022-08-19T08:21:41;4.53;;;4.13;;
10957;SDS011;5531;42.570;23.676;2022-08-19T08:24:13;4.40;;;4.00;;
10957;SDS011;5531;42.570;23.676;2022-08-19T08:26:43;6.30;;;4.07;;
10957;SDS011;5531;42.570;23.676;2022-08-19T08:29:12;4.43;;;3.50;;
10957;SDS011;5531;42.570;23.676;2022-08-19T08:31:42;3.90;;;3.45;;
10957;SDS011;5531;42.570;23.676;2022-08-19T08:34:13;4.13;;;3.72;;
10957;SDS011;5531;42.570;23.676;2022-08-19T08:36:43;4.47;;;3.92;;
10957;SDS011;5531;42.570;23.676;2022-08-19T08:39:17;4.47;;;3.70;;
10957;SDS011;5531;42.570;23.676;2022-08-19T08:41:50;3.83;;;3.53;;
10957;SDS011;5531;42.570;23.676;2022-08-19T08:44:27;4.07;;;3.58;;
10957;SDS011;5531;42.570;23.676;2022-08-19T08:47:09;4.10;;;3.70;;
10957;SDS011;5531;42.570;23.676;2022-08-19T08:49:44;4.78;;;3.80;;
10957;SDS011;5531;42.570;23.676;2022-08-19T08:52:21;4.60;;;3.67;;
10957;SDS011;5531;42.570;23.676;2022-08-19T08:54:57;4.20;;;3.50;;
10957;SDS011;5531;42.570;23.676;2022-08-19T08:57:29;6.15;;;3.40;;
10957;SDS011;5531;42.570;23.676;2022-08-19T09:00:04;4.20;;;3.47;;
10957;SDS011;5531;42.570;23.676;2022-08-19T09:02:38;4.30;;;3.65;;
10957;SDS011;5531;42.570;23.676;2022-08-19T09:05:07;4.15;;;3.75;;
10957;SDS011;5531;42.570;23.676;2022-08-19T09:07:40;4.30;;;3.60;;
10957;SDS011;5531;42.570;23.676;2022-08-19T09:10:25;4.15;;;3.55;;
10957;SDS011;5531;42.570;23.676;2022-08-19T09:13:00;6.20;;;3.80;;
10957;SDS011;5531;42.570;23.676;2022-08-19T09:15:38;3.90;;;3.30;;
10957;SDS011;5531;42.570;23.676;2022-08-19T09:18:11;4.35;;;3.42;;
10957;SDS011;5531;42.570;23.676;2022-08-19T09:20:41;4.03;;;3.60;;
10957;SDS011;5531;42.570;23.676;2022-08-19T09:23:12;4.63;;;3.50;;
10957;SDS011;5531;42.570;23.676;2022-08-19T09:25:44;4.63;;;3.70;;
10957;SDS011;5531;42.570;23.676;2022-08-19T09:28:13;4.03;;;3.67;;
10957;SDS011;5531;42.570;23.676;2022-08-19T09:30:42;4.35;;;3.58;;
10957;SDS011;5531;42.570;23.676;2022-08-19T09:33:12;4.28;;;2.85;;
10957;SDS011;5531;42.570;23.676;2022-08-19T09:35:41;4.97;;;3.30;;
10957;SDS011;5531;42.570;23.676;2022-08-19T09:38:10;3.97;;;3.40;;
10957;SDS011;5531;42.570;23.676;2022-08-19T09:40:39;4.18;;;3.40;;
10957;SDS011;5531;42.570;23.676;2022-08-19T09:43:11;4.45;;;3.40;;
10957;SDS011;5531;42.570;23.676;2022-08-19T09:45:40;4.15;;;3.50;;
10957;SDS011;5531;42.570;23.676;2022-08-19T09:48:09;4.00;;;3.45;;
10957;SDS011;5531;42.570;23.676;2022-08-19T09:50:38;3.80;;;3.40;;
10957;SDS011;5531;42.570;23.676;2022-08-19T09:53:07;6.22;;;3.78;;
10957;SDS011;5531;42.570;23.676;2022-08-19T09:55:41;3.85;;;3.45;;
10957;SDS011;5531;42.570;23.676;2022-08-19T09:58:12;4.05;;;3.42;;
10957;SDS011;5531;42.570;23.676;2022-08-19T10:00:41;5.05;;;3.60;;
10957;SDS011;5531;42.570;23.676;2022-08-19T10:03:11;4.07;;;3.40;;
10957;SDS011;5531;42.570;23.676;2022-08-19T10:05:40;6.13;;;3.90;;
10957;SDS011;5531;42.570;23.676;2022-08-19T10:08:19;3.70;;;3.40;;
10957;SDS011;5531;42.570;23.676;2022-08-19T10:10:51;3.90;;;3.47;;
10957;SDS011;5531;42.570;23.676;2022-08-19T10:13:24;5.97;;;3.97;;
10957;SDS011;5531;42.570;23.676;2022-08-19T10:15:56;3.90;;;3.55;;
10957;SDS011;5531;42.570;23.676;2022-08-19T10:18:30;3.85;;;3.40;;
10957;SDS011;5531;42.570;23.676;2022-08-19T10:21:03;4.82;;;3.72;;
10957;SDS011;5531;42.570;23.676;2022-08-19T10:23:36;6.28;;;3.70;;
10957;SDS011;5531;42.570;23.676;2022-08-19T10:26:11;4.25;;;3.58;;
10957;SDS011;5531;42.570;23.676;2022-08-19T10:28:44;7.13;;;3.47;;
10957;SDS011;5531;42.570;23.676;2022-08-19T10:31:14;4.10;;;3.50;;
10957;SDS011;5531;42.570;23.676;2022-08-19T10:33:45;4.82;;;3.40;;
10957;SDS011;5531;42.570;23.676;2022-08-19T10:36:15;5.32;;;3.58;;
10957;SDS011;5531;42.570;23.676;2022-08-19T10:38:47;4.28;;;3.78;;
10957;SDS011;5531;42.570;23.676;2022-08-19T10:41:19;4.32;;;3.60;;
10957;SDS011;5531;42.570;23.676;2022-08-19T10:43:53;3.97;;;3.35;;
10957;SDS011;5531;42.570;23.676;2022-08-19T10:46:24;4.70;;;3.72;;
10957;SDS011;5531;42.570;23.676;2022-08-19T10:48:58;4.80;;;3.80;;
10957;SDS011;5531;42.570;23.676;2022-08-19T10:51:27;4.18;;;3.58;;
10957;SDS011;5531;42.570;23.676;2022-08-19T10:54:09;4.82;;;3.35;;
10957;SDS011;5531;42.570;23.676;2022-08-19T10:56:38;3.70;;;3.40;;
10957;SDS011;5531;42.570;23.676;2022-08-19T10:59:20;4.78;;;3.22;;
10957;SDS011;5531;42.570;23.676;2022-08-19T11:01:53;5.35;;;3.55;;
10957;SDS011;5531;42.570;23.676;2022-08-19T11:04:26;4.80;;;3.95;;
10957;SDS011;5531;42.570;23.676;2022-08-19T11:06:57;5.00;;;3.85;;
10957;SDS011;5531;42.570;23.676;2022-08-19T11:09:26;6.38;;;3.80;;
10957;SDS011;5531;42.570;23.676;2022-08-19T11:11:57;4.57;;;3.95;;
10957;SDS011;5531;42.570;23.676;2022-08-19T11:14:29;4.72;;;4.00;;
10957;SDS011;5531;42.570;23.676;2022-08-19T11:16:59;5.68;;;3.88;;
10957;SDS011;5531;42.570;23.676;2022-08-19T11:19:28;5.82;;;4.53;;
10957;SDS011;5531;42.570;23.676;2022-08-19T11:21:57;4.25;;;3.80;;
10957;SDS011;5531;42.570;23.676;2022-08-19T11:24:28;4.97;;;4.13;;
10957;SDS011;5531;42.570;23.676;2022-08-19T11:27:01;5.75;;;4.20;;
10957;SDS011;5531;42.570;23.676;2022-08-19T11:29:34;4.07;;;3.60;;
10957;SDS011;5531;42.570;23.676;2022-08-19T11:32:06;4.25;;;3.70;;
10957;SDS011;5531;42.570;23.676;2022-08-19T11:34:38;7.07;;;4.35;;
10957;SDS011;5531;42.570;23.676;2022-08-19T11:37:07;5.88;;;5.28;;
10957;SDS011;5531;42.570;23.676;2022-08-19T11:39:37;5.03;;;3.88;;
10957;SDS011;5531;42.570;23.676;2022-08-19T11:42:06;4.38;;;3.97;;
10957;SDS011;5531;42.570;23.676;2022-08-19T11:44:50;4.47;;;3.90;;
10957;SDS011;5531;42.570;23.676;2022-08-19T11:47:19;5.50;;;3.95;;
10957;SDS011;5531;42.570;23.676;2022-08-19T11:49:49;4.35;;;3.90;;
10957;SDS011;5531;42.570;23.676;2022-08-19T11:52:18;5.70;;;4.40;;
10957;SDS011;5531;42.570;23.676;2022-08-19T11:54:47;5.60;;;4.38;;
10957;SDS011;5531;42.570;23.676;2022-08-19T11:57:16;5.53;;;4.60;;
10957;SDS011;5531;42.570;23.676;2022-08-19T11:59:51;5.60;;;4.28;;
10957;SDS011;5531;42.570;23.676;2022-08-19T12:02:20;6.00;;;4.63;;
10957;SDS011;5531;42.570;23.676;2022-08-19T12:04:50;7.10;;;4.53;;
10957;SDS011;5531;42.570;23.676;2022-08-19T12:07:19;6.32;;;4.47;;
10957;SDS011;5531;42.570;23.676;2022-08-19T12:09:50;5.15;;;3.78;;
10957;SDS011;5531;42.570;23.676;2022-08-19T12:12:19;5.20;;;4.13;;
10957;SDS011;5531;42.570;23.676;2022-08-19T12:14:52;5.88;;;4.00;;
10957;SDS011;5531;42.570;23.676;2022-08-19T12:17:23;5.75;;;4.15;;
10957;SDS011;5531;42.570;23.676;2022-08-19T12:19:53;6.07;;;4.22;;
10957;SDS011;5531;42.570;23.676;2022-08-19T12:22:23;5.05;;;4.10;;
10957;SDS011;5531;42.570;23.676;2022-08-19T12:24:53;5.88;;;4.45;;
10957;SDS011;5531;42.570;23.676;2022-08-19T12:27:24;7.68;;;4.63;;
10957;SDS011;5531;42.570;23.676;2022-08-19T12:29:55;4.68;;;3.75;;
10957;SDS011;5531;42.570;23.676;2022-08-19T12:32:27;6.05;;;4.10;;
10957;SDS011;5531;42.570;23.676;2022-08-19T12:34:56;5.85;;;4.22;;
10957;SDS011;5531;42.570;23.676;2022-08-19T12:37:25;4.30;;;3.90;;
10957;SDS011;5531;42.570;23.676;2022-08-19T12:39:54;4.53;;;3.60;;
10957;SDS011;5531;42.570;23.676;2022-08-19T12:42:23;4.60;;;4.18;;
10957;SDS011;5531;42.570;23.676;2022-08-19T12:44:53;4.85;;;4.10;;
10957;SDS011;5531;42.570;23.676;2022-08-19T12:47:24;4.95;;;3.88;;
10957;SDS011;5531;42.570;23.676;2022-08-19T12:49:55;4.78;;;4.05;;
10957;SDS011;5531;42.570;23.676;2022-08-19T12:52:25;5.95;;;4.25;;
10957;SDS011;5531;42.570;23.676;2022-08-19T12:54:55;5.80;;;3.85;;
10957;SDS011;5531;42.570;23.676;2022-08-19T12:57:25;5.10;;;3.83;;
10957;SDS011;5531;42.570;23.676;2022-08-19T13:00:01;4.47;;;4.07;;
10957;SDS011;5531;42.570;23.676;2022-08-19T13:02:34;4.95;;;3.58;;
10957;SDS011;5531;42.570;23.676;2022-08-19T13:05:03;6.25;;;4.10;;
10957;SDS011;5531;42.570;23.676;2022-08-19T13:07:33;5.95;;;4.10;;
10957;SDS011;5531;42.570;23.676;2022-08-19T13:10:04;5.18;;;3.92;;
10957;SDS011;5531;42.570;23.676;2022-08-19T13:12:34;5.20;;;4.30;;
10957;SDS011;5531;42.570;23.676;2022-08-19T13:15:07;4.57;;;4.18;;
10957;SDS011;5531;42.570;23.676;2022-08-19T13:17:37;5.05;;;4.13;;
10957;SDS011;5531;42.570;23.676;2022-08-19T13:20:09;4.05;;;3.65;;
10957;SDS011;5531;42.570;23.676;2022-08-19T13:22:39;6.53;;;4.38;;
10957;SDS011;5531;42.570;23.676;2022-08-19T13:25:10;5.68;;;4.28;;
10957;SDS011;5531;42.570;23.676;2022-08-19T13:27:43;8.23;;;4.18;;
10957;SDS011;5531;42.570;23.676;2022-08-19T13:30:15;4.30;;;3.90;;
10957;SDS011;5531;42.570;23.676;2022-08-19T13:32:58;6.07;;;4.32;;
10957;SDS011;5531;42.570;23.676;2022-08-19T13:35:40;5.47;;;4.13;;
10957;SDS011;5531;42.570;23.676;2022-08-19T13:38:11;4.57;;;4.18;;
10957;SDS011;5531;42.570;23.676;2022-08-19T13:40:41;4.82;;;4.28;;
10957;SDS011;5531;42.570;23.676;2022-08-19T13:43:11;7.45;;;4.35;;
10957;SDS011;5531;42.570;23.676;2022-08-19T13:45:43;4.85;;;4.00;;
10957;SDS011;5531;42.570;23.676;2022-08-19T13:48:13;5.75;;;4.22;;
10957;SDS011;5531;42.570;23.676;2022-08-19T13:50:47;4.75;;;4.35;;
10957;SDS011;5531;42.570;23.676;2022-08-19T13:56:17;4.63;;;4.22;;
10957;SDS011;5531;42.570;23.676;2022-08-19T13:58:47;6.30;;;4.10;;
10957;SDS011;5531;42.570;23.676;2022-08-19T14:01:21;6.57;;;3.85;;
10957;SDS011;5531;42.570;23.676;2022-08-19T14:03:51;8.10;;;3.90;;
10957;SDS011;5531;42.570;23.676;2022-08-19T14:06:20;5.03;;;3.92;;
10957;SDS011;5531;42.570;23.676;2022-08-19T14:08:50;5.35;;;3.92;;
10957;SDS011;5531;42.570;23.676;2022-08-19T14:11:20;4.32;;;3.92;;
10957;SDS011;5531;42.570;23.676;2022-08-19T14:13:49;6.10;;;4.28;;
10957;SDS011;5531;42.570;23.676;2022-08-19T14:16:21;5.32;;;4.07;;
10957;SDS011;5531;42.570;23.676;2022-08-19T14:18:50;4.47;;;4.07;;
10957;SDS011;5531;42.570;23.676;2022-08-19T14:21:20;4.30;;;3.90;;
10957;SDS011;5531;42.570;23.676;2022-08-19T14:23:51;7.20;;;4.35;;
10957;SDS011;5531;42.570;23.676;2022-08-19T14:26:22;7.00;;;3.85;;
10957;SDS011;5531;42.570;23.676;2022-08-19T14:28:52;4.00;;;3.55;;
10957;SDS011;5531;42.570;23.676;2022-08-19T14:31:25;5.70;;;3.92;;
10957;SDS011;5531;42.570;23.676;2022-08-19T14:33:54;6.88;;;3.67;;
10957;SDS011;5531;42.570;23.676;2022-08-19T14:36:23;4.57;;;4.18;;
10957;SDS011;5531;42.570;23.676;2022-08-19T14:38:52;5.15;;;4.10;;
10957;SDS011;5531;42.570;23.676;2022-08-19T14:41:23;6.10;;;3.78;;
10957;SDS011;5531;42.570;23.676;2022-08-19T14:43:53;4.38;;;3.80;;
10957;SDS011;5531;42.570;23.676;2022-08-19T14:46:26;6.97;;;3.95;;
10957;SDS011;5531;42.570;23.676;2022-08-19T14:48:56;5.40;;;4.10;;
10957;SDS011;5531;42.570;23.676;2022-08-19T14:51:26;5.20;;;3.88;;
10957;SDS011;5531;42.570;23.676;2022-08-19T14:53:56;6.00;;;4.03;;
10957;SDS011;5531;42.570;23.676;2022-08-19T14:56:27;4.93;;;4.10;;
10957;SDS011;5531;42.570;23.676;2022-08-19T14:58:57;6.05;;;4.00;;
10957;SDS011;5531;42.570;23.676;2022-08-19T15:01:30;5.80;;;4.15;;
10957;SDS011;5531;42.570;23.676;2022-08-19T15:04:00;4.45;;;4.05;;
10957;SDS011;5531;42.570;23.676;2022-08-19T15:06:29;5.15;;;4.00;;
10957;SDS011;5531;42.570;23.676;2022-08-19T15:08:58;5.35;;;3.85;;
10957;SDS011;5531;42.570;23.676;2022-08-19T15:11:28;4.95;;;4.13;;
10957;SDS011;5531;42.570;23.676;2022-08-19T15:13:58;4.28;;;3.88;;